Date,TemperatureHighF,TemperatureAvgF,TemperatureLowF,DewpointHighF,DewpointAvgF,DewpointLowF,HumidityHigh,HumidityAvg,HumidityLow,PressureMaxIn,PressureMinIn,WindSpeedMaxMPH,WindSpeedAvgMPH,GustSpeedMaxMPH,PrecipitationSumIn
2014-1-1,13.1,11.4,10.5,7.6,3.2,-0.8,79,69,56,30.37,30.23,5,2,10,0.00
2014-1-2,13.3,9.6,-1.6,5.8,0.1,-7.8,76,65,48,30.34,30.16,11,4,18,0.00
2014-1-3,16.5,7.4,-4.6,3.9,-3.5,-10.5,77,62,45,30.41,29.96,12,4,18,0.00
2014-1-4,30.7,25.0,16.4,28.3,17.7,4.2,93,75,57,29.96,29.78,11,6,18,0.00
2014-1-5,29.3,23.3,16.1,27.5,20.8,12.7,93,90,86,29.99,29.75,10,4,16,0.00
2014-1-6,16.1,4.4,-1.8,12.7,-0.7,-7.8,86,79,75,30.05,29.75,8,5,18,0.00
2014-1-7,8.1,3.8,-1.2,3.5,-1.3,-6.9,81,79,76,30.25,30.04,9,4,14,0.00
2014-1-8,17.0,11.2,5.4,13.5,7.0,0.4,86,83,80,30.47,30.24,5,1,7,0.00
2014-1-9,22.1,14.4,11.1,18.9,10.3,6.9,88,83,80,30.52,30.19,3,1,7,0.00
2014-1-10,40.6,31.2,22.1,39.3,29.3,19.1,95,93,88,30.19,29.50,7,2,13,1.15
2014-1-11,41.5,36.5,32.5,40.2,33.7,26.1,96,90,75,29.62,29.31,7,4,12,0.22
2014-1-12,40.1,35.3,31.2,27.7,25.7,23.8,80,69,55,29.83,29.60,9,5,16,0.00
2014-1-13,42.8,38.8,29.4,33.8,30.6,24.6,85,72,59,29.64,29.45,8,3,13,0.01
2014-1-14,34.7,29.1,21.3,30.0,22.6,17.5,90,77,57,29.68,29.55,13,4,24,0.02
2014-1-15,29.7,23.3,18.1,26.5,15.8,10.4,90,73,58,29.96,29.52,13,6,27,0.00
2014-1-16,31.0,23.5,16.7,28.4,17.7,8.9,90,78,70,29.84,29.49,11,6,18,0.00
2014-1-17,31.3,22.3,17.3,28.7,16.2,12.2,90,77,70,29.86,29.50,9,4,17,0.00
2014-1-18,21.9,19.0,10.7,18.3,12.8,6.6,86,77,62,29.85,29.79,8,3,12,0.00
2014-1-19,34.1,26.1,10.7,28.3,20.2,6.6,85,78,72,29.80,29.43,13,6,22,0.00
2014-1-20,34.0,22.6,10.2,27.5,14.0,-0.9,80,69,58,30.07,29.44,10,3,13,0.00
2014-1-21,12.6,8.5,0.1,2.7,-3.9,-7.4,77,57,43,30.23,30.07,6,1,10,0.00
2014-1-22,12.4,9.5,7.2,5.8,2.4,-0.6,82,72,59,30.15,29.83,12,4,19,0.00
2014-1-23,15.2,9.6,0.9,7.0,1.2,-4.8,81,69,46,30.46,29.96,7,2,11,0.00
2014-1-24,25.4,13.4,0.9,23.1,6.1,-6.3,91,72,52,30.41,29.38,15,9,24,0.00
2014-1-25,29.4,17.9,8.8,27.6,13.5,1.7,93,83,61,29.74,29.24,13,6,20,0.00
2014-1-26,22.9,13.7,8.6,18.9,9.3,3.7,88,82,80,29.73,29.30,8,3,12,0.00
2014-1-27,14.1,5.6,0.9,10.2,0.3,-4.9,84,78,75,30.28,29.49,11,4,18,0.00
2014-1-28,8.8,5.8,0.1,3.1,0.5,-5.4,80,78,76,30.29,30.11,8,4,14,0.00
2014-1-29,18.6,12.6,7.7,8.9,3.9,0.0,80,68,57,30.10,30.01,11,7,17,0.00
2014-1-30,31.8,23.3,14.1,27.3,12.3,3.1,91,64,46,30.01,29.63,13,8,19,0.00
2014-1-31,31.9,22.7,16.9,26.4,15.4,11.0,83,73,62,30.10,29.75,7,2,14,0.00
2014-2-1,26.0,22.3,17.3,22.2,18.5,13.0,88,85,82,30.09,29.81,4,1,5,0.00
2014-2-2,23.9,19.2,4.1,18.3,12.2,-0.7,86,74,60,30.27,29.98,5,1,10,0.00
2014-2-3,21.8,9.9,-3.5,11.4,2.9,-9.2,82,74,60,30.35,30.26,5,1,7,0.00
2014-2-4,24.1,15.4,4.8,15.1,8.3,0.0,82,74,62,30.41,30.13,3,0,5,0.00
2014-2-5,21.4,18.0,13.6,16.2,10.7,3.5,87,73,49,30.35,30.01,9,5,13,0.00
2014-2-6,16.1,13.3,10.4,11.1,6.7,2.6,82,75,65,30.35,30.24,10,4,17,0.00
2014-2-7,15.2,10.8,8.3,5.3,2.8,-0.4,78,70,59,30.28,30.23,13,6,19,0.00
2014-2-8,19.1,13.5,8.6,11.6,7.1,0.8,82,75,65,30.27,30.11,6,2,10,0.00
2014-2-9,23.5,16.8,13.5,14.3,10.8,8.2,83,77,58,30.16,30.02,6,1,10,0.00
2014-2-10,16.4,12.8,8.6,11.0,5.3,0.5,83,72,59,30.39,30.16,6,2,12,0.00
2014-2-11,18.6,10.6,0.7,5.9,1.5,-4.8,80,67,47,30.48,30.39,4,1,6,0.00
2014-2-12,22.2,10.2,-5.2,7.8,-0.4,-11.4,79,63,44,30.39,30.01,3,1,7,0.00
2014-2-13,30.1,24.0,18.9,20.7,9.6,3.0,81,55,31,30.01,29.42,9,2,12,0.00
2014-2-14,27.6,23.4,15.1,23.9,16.1,6.8,87,74,65,29.83,29.40,7,3,14,0.00
2014-2-15,23.2,15.0,7.7,12.1,6.9,2.0,81,70,55,30.04,29.83,5,1,9,0.00
2014-2-16,27.0,20.6,15.1,16.1,12.8,8.3,84,72,53,30.28,29.89,5,1,7,0.00
2014-2-17,19.1,15.5,10.5,15.3,9.4,4.3,86,77,53,30.30,29.64,10,4,17,0.00
2014-2-18,39.1,24.2,16.7,26.0,18.5,13.0,88,79,56,29.92,29.65,7,2,12,0.22
2014-2-19,41.3,35.6,25.1,30.4,25.1,20.9,86,66,54,29.95,29.74,7,2,14,0.03
2014-2-20,42.5,33.8,25.4,41.2,29.7,21.8,95,85,67,29.96,29.22,14,5,17,0.48
2014-2-21,37.3,31.1,26.7,31.0,21.5,11.2,90,68,47,29.69,29.27,18,12,32,0.00
2014-2-22,30.7,26.3,22.7,15.8,13.4,11.4,64,58,49,29.96,29.69,12,7,18,0.00
2014-2-23,24.2,21.3,16.2,13.1,9.9,7.4,74,61,51,30.08,29.96,10,5,19,0.00
2014-2-24,21.6,18.5,17.2,9.6,8.2,6.7,69,64,55,30.14,30.05,10,5,21,0.00
2014-2-27,13.1,7.6,4.8,8.1,-3.5,-10.0,80,60,43,30.11,29.53,13,7,20,0.00
2014-2-28,19.4,9.2,-10.0,5.0,-5.9,-17.1,72,51,37,30.27,30.00,8,3,13,0.00
2014-3-1,23.3,20.9,19.4,16.5,11.6,5.0,85,68,53,30.16,29.98,6,2,11,0.03
2014-3-13,6.9,3.5,1.5,-1.9,-3.2,-4.0,77,73,66,30.11,30.05,0,0,8,0.00
2014-3-14,38.5,38.5,38.5,27.7,27.7,27.7,65,65,65,29.58,29.58,8,8,8,0.00
2014-4-3,40.1,38.3,36.2,25.5,23.5,21.3,62,55,48,30.05,29.99,9,5,20,0.00
2014-4-7,32.4,32.4,32.4,29.8,29.8,29.8,90,90,90,29.84,29.84,0,0,20,0.00
2014-4-10,52.5,51.7,51.1,31.0,30.5,29.9,45,44,42,29.71,29.63,9,7,20,0.00
2014-4-12,50.2,42.8,40.2,31.4,29.0,26.2,69,59,41,29.98,29.94,3,0,14,0.00
2014-5-2,44.1,43.6,42.9,42.2,41.6,40.7,93,93,91,29.71,29.65,5,3,10,0.02
2014-5-9,73.0,69.8,62.7,59.8,55.0,46.0,74,60,50,29.63,29.56,12,9,19,0.54
2014-5-16,41.9,41.7,41.5,31.0,30.8,30.6,66,65,64,29.99,29.98,2,2,6,0.00
2014-5-20,56.2,56.2,56.2,47.3,47.3,47.3,72,72,72,29.85,29.85,2,2,7,0.00
2014-6-12,78.1,63.4,55.6,62.1,57.7,54.0,95,83,54,29.70,29.62,4,2,11,0.01
2014-7-11,82.2,69.4,55.3,58.5,54.4,51.8,94,63,36,30.14,30.05,4,1,8,0.01
2014-8-2,77.9,77.9,77.9,57.8,55.0,52.3,50,46,41,30.04,30.04,2,2,8,0.00
2014-8-13,73.9,73.5,72.8,54.1,53.1,52.2,51,49,47,29.89,29.89,3,3,5,0.01
2014-8-29,75.4,69.1,62.9,67.8,59.8,53.2,80,72,65,29.96,29.82,4,2,13,0.01
2014-8-31,74.9,74.3,73.7,68.2,67.7,67.2,83,80,77,29.84,29.83,2,2,5,0.00
2014-9-11,54.2,51.5,49.6,47.2,46.4,45.3,85,83,76,30.17,30.09,4,2,6,0.00
2014-9-12,55.9,50.8,47.4,47.6,44.6,40.6,93,80,57,30.25,30.12,5,1,7,0.01
2014-9-13,49.4,48.1,45.7,47.5,46.3,43.8,94,93,92,30.18,30.08,4,1,6,0.01
2014-10-1,53.2,52.6,52.3,48.8,47.7,46.5,86,83,79,29.97,29.94,1,0,11,0.00
2014-10-17,51.9,51.9,51.9,49.9,49.9,49.9,93,93,93,29.45,29.45,2,2,3,0.00
2014-10-18,44.3,44.3,44.3,39.5,39.5,39.5,83,83,83,29.88,29.88,4,4,4,0.03
2014-10-19,28.8,28.5,28.4,26.2,26.1,25.8,91,91,90,30.13,30.11,0,0,6,0.00